sensor_id;sensor_type;location;lat;lon;timestamp;P1;durP1;ratioP1;P2;durP2;ratioP2
72037;SDS011;59900;50.788;12.904;2022-11-15T00:02:17;14.30;;;6.67;;
72037;SDS011;59900;50.788;12.904;2022-11-15T00:04:42;12.03;;;6.23;;
72037;SDS011;59900;50.788;12.904;2022-11-15T00:07:08;13.37;;;6.00;;
72037;SDS011;59900;50.788;12.904;2022-11-15T00:09:33;10.87;;;5.00;;
72037;SDS011;59900;50.788;12.904;2022-11-15T00:11:58;12.17;;;5.67;;
72037;SDS011;59900;50.788;12.904;2022-11-15T00:14:23;15.13;;;5.73;;
72037;SDS011;59900;50.788;12.904;2022-11-15T00:16:49;12.13;;;5.37;;
72037;SDS011;59900;50.788;12.904;2022-11-15T00:19:14;11.47;;;5.53;;
72037;SDS011;59900;50.788;12.904;2022-11-15T00:21:39;12.87;;;6.23;;
72037;SDS011;59900;50.788;12.904;2022-11-15T00:24:04;12.17;;;5.47;;
72037;SDS011;59900;50.788;12.904;2022-11-15T00:26:30;12.70;;;5.30;;
72037;SDS011;59900;50.788;12.904;2022-11-15T00:28:55;11.00;;;4.73;;
72037;SDS011;59900;50.788;12.904;2022-11-15T00:31:20;9.47;;;4.70;;
72037;SDS011;59900;50.788;12.904;2022-11-15T00:33:46;13.97;;;5.67;;
72037;SDS011;59900;50.788;12.904;2022-11-15T00:36:11;12.87;;;5.53;;
72037;SDS011;59900;50.788;12.904;2022-11-15T00:38:37;12.23;;;5.80;;
72037;SDS011;59900;50.788;12.904;2022-11-15T00:41:04;14.88;;;6.07;;
72037;SDS011;59900;50.788;12.904;2022-11-15T00:43:31;11.68;;;5.90;;
72037;SDS011;59900;50.788;12.904;2022-11-15T00:45:56;10.87;;;5.20;;
72037;SDS011;59900;50.788;12.904;2022-11-15T00:48:22;11.55;;;5.47;;
72037;SDS011;59900;50.788;12.904;2022-11-15T00:50:48;11.33;;;6.00;;
72037;SDS011;59900;50.788;12.904;2022-11-15T00:53:14;11.60;;;5.85;;
72037;SDS011;59900;50.788;12.904;2022-11-15T00:55:39;11.13;;;5.67;;
72037;SDS011;59900;50.788;12.904;2022-11-15T00:58:05;13.17;;;5.87;;
72037;SDS011;59900;50.788;12.904;2022-11-15T01:00:30;18.13;;;5.83;;
72037;SDS011;59900;50.788;12.904;2022-11-15T01:02:55;11.67;;;5.63;;
72037;SDS011;59900;50.788;12.904;2022-11-15T01:05:20;12.57;;;5.60;;
72037;SDS011;59900;50.788;12.904;2022-11-15T01:07:46;14.37;;;5.77;;
72037;SDS011;59900;50.788;12.904;2022-11-15T01:10:11;12.20;;;6.07;;
72037;SDS011;59900;50.788;12.904;2022-11-15T01:12:36;13.60;;;5.50;;
72037;SDS011;59900;50.788;12.904;2022-11-15T01:15:02;12.40;;;5.90;;
72037;SDS011;59900;50.788;12.904;2022-11-15T01:17:28;12.93;;;5.78;;
72037;SDS011;59900;50.788;12.904;2022-11-15T01:19:53;13.00;;;6.43;;
72037;SDS011;59900;50.788;12.904;2022-11-15T01:22:18;11.50;;;5.80;;
72037;SDS011;59900;50.788;12.904;2022-11-15T01:24:43;12.93;;;5.47;;
72037;SDS011;59900;50.788;12.904;2022-11-15T01:27:09;13.17;;;6.10;;
72037;SDS011;59900;50.788;12.904;2022-11-15T01:29:34;10.90;;;5.00;;
72037;SDS011;59900;50.788;12.904;2022-11-15T01:32:00;11.50;;;5.60;;
72037;SDS011;59900;50.788;12.904;2022-11-15T01:34:25;11.83;;;5.87;;
72037;SDS011;59900;50.788;12.904;2022-11-15T01:36:50;11.17;;;5.97;;
72037;SDS011;59900;50.788;12.904;2022-11-15T01:39:16;12.17;;;5.30;;
72037;SDS011;59900;50.788;12.904;2022-11-15T01:41:42;12.10;;;5.53;;
72037;SDS011;59900;50.788;12.904;2022-11-15T01:47:16;10.73;;;5.63;;
72037;SDS011;59900;50.788;12.904;2022-11-15T01:50:00;10.23;;;4.85;;
72037;SDS011;59900;50.788;12.904;2022-11-15T01:52:29;11.20;;;5.20;;
72037;SDS011;59900;50.788;12.904;2022-11-15T01:54:58;10.97;;;5.60;;
72037;SDS011;59900;50.788;12.904;2022-11-15T01:57:30;10.63;;;5.32;;
72037;SDS011;59900;50.788;12.904;2022-11-15T01:59:55;11.23;;;6.00;;
72037;SDS011;59900;50.788;12.904;2022-11-15T02:02:22;10.93;;;4.77;;
72037;SDS011;59900;50.788;12.904;2022-11-15T02:04:47;12.13;;;5.00;;
72037;SDS011;59900;50.788;12.904;2022-11-15T02:07:14;10.93;;;5.33;;
72037;SDS011;59900;50.788;12.904;2022-11-15T02:09:42;11.43;;;5.50;;
72037;SDS011;59900;50.788;12.904;2022-11-15T02:12:08;12.50;;;5.40;;
72037;SDS011;59900;50.788;12.904;2022-11-15T02:14:38;13.45;;;5.78;;
72037;SDS011;59900;50.788;12.904;2022-11-15T02:17:09;11.18;;;5.07;;
72037;SDS011;59900;50.788;12.904;2022-11-15T02:19:45;11.32;;;4.97;;
72037;SDS011;59900;50.788;12.904;2022-11-15T02:28:06;10.73;;;4.45;;
72037;SDS011;59900;50.788;12.904;2022-11-15T02:33:34;11.68;;;4.90;;
72037;SDS011;59900;50.788;12.904;2022-11-15T02:36:26;12.25;;;5.28;;
72037;SDS011;59900;50.788;12.904;2022-11-15T02:39:11;11.50;;;4.97;;
72037;SDS011;59900;50.788;12.904;2022-11-15T02:41:47;11.57;;;4.78;;
72037;SDS011;59900;50.788;12.904;2022-11-15T02:44:19;9.85;;;5.32;;
72037;SDS011;59900;50.788;12.904;2022-11-15T02:46:54;11.40;;;4.90;;
72037;SDS011;59900;50.788;12.904;2022-11-15T02:49:37;10.60;;;5.00;;
72037;SDS011;59900;50.788;12.904;2022-11-15T02:52:08;10.40;;;5.00;;
72037;SDS011;59900;50.788;12.904;2022-11-15T02:54:33;10.98;;;5.18;;
72037;SDS011;59900;50.788;12.904;2022-11-15T02:57:01;10.50;;;5.30;;
72037;SDS011;59900;50.788;12.904;2022-11-15T03:02:16;11.15;;;5.60;;
72037;SDS011;59900;50.788;12.904;2022-11-15T03:04:44;12.40;;;5.70;;
72037;SDS011;59900;50.788;12.904;2022-11-15T03:07:29;12.27;;;6.07;;
72037;SDS011;59900;50.788;12.904;2022-11-15T03:10:02;12.95;;;5.47;;
72037;SDS011;59900;50.788;12.904;2022-11-15T03:12:41;14.43;;;6.22;;
72037;SDS011;59900;50.788;12.904;2022-11-15T03:15:21;13.05;;;5.32;;
72037;SDS011;59900;50.788;12.904;2022-11-15T03:18:27;13.77;;;5.57;;
72037;SDS011;59900;50.788;12.904;2022-11-15T03:20:48;15.40;;;6.23;;
72037;SDS011;59900;50.788;12.904;2022-11-15T03:23:15;11.85;;;6.10;;
72037;SDS011;59900;50.788;12.904;2022-11-15T03:25:43;13.90;;;5.85;;
72037;SDS011;59900;50.788;12.904;2022-11-15T03:28:22;15.57;;;6.40;;
72037;SDS011;59900;50.788;12.904;2022-11-15T03:30:50;12.45;;;5.80;;
72037;SDS011;59900;50.788;12.904;2022-11-15T03:33:19;15.70;;;7.23;;
72037;SDS011;59900;50.788;12.904;2022-11-15T03:35:47;12.85;;;6.00;;
72037;SDS011;59900;50.788;12.904;2022-11-15T03:38:19;15.35;;;6.65;;
72037;SDS011;59900;50.788;12.904;2022-11-15T03:40:51;13.38;;;5.75;;
72037;SDS011;59900;50.788;12.904;2022-11-15T03:43:29;13.02;;;6.05;;
72037;SDS011;59900;50.788;12.904;2022-11-15T03:46:01;13.50;;;6.00;;
72037;SDS011;59900;50.788;12.904;2022-11-15T03:48:33;13.25;;;6.15;;
72037;SDS011;59900;50.788;12.904;2022-11-15T03:51:02;14.40;;;5.85;;
72037;SDS011;59900;50.788;12.904;2022-11-15T03:53:29;12.95;;;5.82;;
72037;SDS011;59900;50.788;12.904;2022-11-15T03:55:55;14.27;;;6.32;;
72037;SDS011;59900;50.788;12.904;2022-11-15T03:58:20;15.53;;;6.73;;
72037;SDS011;59900;50.788;12.904;2022-11-15T04:00:46;14.73;;;6.43;;
72037;SDS011;59900;50.788;12.904;2022-11-15T04:03:11;12.77;;;6.30;;
72037;SDS011;59900;50.788;12.904;2022-11-15T04:05:36;14.40;;;6.03;;
72037;SDS011;59900;50.788;12.904;2022-11-15T04:08:01;13.53;;;6.27;;
72037;SDS011;59900;50.788;12.904;2022-11-15T04:10:27;12.60;;;5.77;;
72037;SDS011;59900;50.788;12.904;2022-11-15T04:12:52;13.07;;;5.63;;
72037;SDS011;59900;50.788;12.904;2022-11-15T04:15:18;11.10;;;5.50;;
72037;SDS011;59900;50.788;12.904;2022-11-15T04:17:46;10.07;;;4.50;;
72037;SDS011;59900;50.788;12.904;2022-11-15T04:20:26;8.93;;;4.50;;
72037;SDS011;59900;50.788;12.904;2022-11-15T04:23:15;12.40;;;5.05;;
72037;SDS011;59900;50.788;12.904;2022-11-15T04:26:03;10.27;;;4.90;;
72037;SDS011;59900;50.788;12.904;2022-11-15T04:28:30;13.77;;;4.90;;
72037;SDS011;59900;50.788;12.904;2022-11-15T04:30:56;11.27;;;4.97;;
72037;SDS011;59900;50.788;12.904;2022-11-15T04:33:21;11.07;;;5.00;;
72037;SDS011;59900;50.788;12.904;2022-11-15T04:35:47;11.60;;;5.00;;
72037;SDS011;59900;50.788;12.904;2022-11-15T04:38:32;11.48;;;5.03;;
72037;SDS011;59900;50.788;12.904;2022-11-15T04:40:58;10.75;;;5.25;;
72037;SDS011;59900;50.788;12.904;2022-11-15T04:43:23;10.67;;;4.67;;
72037;SDS011;59900;50.788;12.904;2022-11-15T04:45:48;10.87;;;4.43;;
72037;SDS011;59900;50.788;12.904;2022-11-15T04:48:13;8.67;;;3.93;;
72037;SDS011;59900;50.788;12.904;2022-11-15T04:50:39;8.70;;;4.17;;
72037;SDS011;59900;50.788;12.904;2022-11-15T04:53:04;8.17;;;3.97;;
72037;SDS011;59900;50.788;12.904;2022-11-15T04:55:29;7.63;;;3.63;;
72037;SDS011;59900;50.788;12.904;2022-11-15T04:57:58;8.63;;;3.73;;
72037;SDS011;59900;50.788;12.904;2022-11-15T05:00:24;9.13;;;3.75;;
72037;SDS011;59900;50.788;12.904;2022-11-15T05:02:50;9.30;;;4.27;;
72037;SDS011;59900;50.788;12.904;2022-11-15T05:05:34;10.60;;;4.60;;
72037;SDS011;59900;50.788;12.904;2022-11-15T05:07:59;8.07;;;3.47;;
72037;SDS011;59900;50.788;12.904;2022-11-15T05:10:24;7.17;;;3.57;;
72037;SDS011;59900;50.788;12.904;2022-11-15T05:12:50;10.10;;;4.00;;
72037;SDS011;59900;50.788;12.904;2022-11-15T05:15:15;9.53;;;4.10;;
72037;SDS011;59900;50.788;12.904;2022-11-15T05:17:40;8.87;;;3.80;;
72037;SDS011;59900;50.788;12.904;2022-11-15T05:20:06;8.87;;;4.07;;
72037;SDS011;59900;50.788;12.904;2022-11-15T05:22:31;18.00;;;6.65;;
72037;SDS011;59900;50.788;12.904;2022-11-15T05:24:57;10.37;;;4.20;;
72037;SDS011;59900;50.788;12.904;2022-11-15T05:27:22;8.23;;;4.00;;
72037;SDS011;59900;50.788;12.904;2022-11-15T05:29:47;9.70;;;4.20;;
72037;SDS011;59900;50.788;12.904;2022-11-15T05:32:12;11.67;;;4.17;;
72037;SDS011;59900;50.788;12.904;2022-11-15T05:34:38;8.18;;;3.85;;
72037;SDS011;59900;50.788;12.904;2022-11-15T05:37:03;9.43;;;4.00;;
72037;SDS011;59900;50.788;12.904;2022-11-15T05:39:29;8.40;;;3.40;;
72037;SDS011;59900;50.788;12.904;2022-11-15T05:41:56;9.27;;;3.75;;
72037;SDS011;59900;50.788;12.904;2022-11-15T05:44:33;7.37;;;3.77;;
72037;SDS011;59900;50.788;12.904;2022-11-15T05:47:01;8.32;;;3.47;;
72037;SDS011;59900;50.788;12.904;2022-11-15T05:49:30;8.35;;;3.35;;
72037;SDS011;59900;50.788;12.904;2022-11-15T05:51:58;8.68;;;3.67;;
72037;SDS011;59900;50.788;12.904;2022-11-15T05:54:24;7.03;;;3.47;;
72037;SDS011;59900;50.788;12.904;2022-11-15T05:56:50;7.47;;;3.40;;
72037;SDS011;59900;50.788;12.904;2022-11-15T05:59:15;8.73;;;3.80;;
72037;SDS011;59900;50.788;12.904;2022-11-15T06:01:41;7.50;;;3.80;;
72037;SDS011;59900;50.788;12.904;2022-11-15T06:04:07;8.03;;;3.97;;
72037;SDS011;59900;50.788;12.904;2022-11-15T06:06:32;7.90;;;3.57;;
72037;SDS011;59900;50.788;12.904;2022-11-15T06:08:57;7.83;;;3.20;;
72037;SDS011;59900;50.788;12.904;2022-11-15T06:11:23;10.10;;;3.53;;
72037;SDS011;59900;50.788;12.904;2022-11-15T06:13:48;7.47;;;3.50;;
72037;SDS011;59900;50.788;12.904;2022-11-15T06:16:13;7.63;;;3.10;;
72037;SDS011;59900;50.788;12.904;2022-11-15T06:18:38;6.23;;;3.00;;
72037;SDS011;59900;50.788;12.904;2022-11-15T06:21:04;6.68;;;3.20;;
72037;SDS011;59900;50.788;12.904;2022-11-15T06:23:33;6.72;;;3.10;;
72037;SDS011;59900;50.788;12.904;2022-11-15T06:26:00;6.70;;;2.90;;
72037;SDS011;59900;50.788;12.904;2022-11-15T06:28:30;7.55;;;3.40;;
72037;SDS011;59900;50.788;12.904;2022-11-15T06:31:02;6.15;;;3.03;;
72037;SDS011;59900;50.788;12.904;2022-11-15T06:33:28;7.65;;;4.05;;
72037;SDS011;59900;50.788;12.904;2022-11-15T06:35:53;6.93;;;3.53;;
72037;SDS011;59900;50.788;12.904;2022-11-15T06:38:19;7.73;;;3.40;;
72037;SDS011;59900;50.788;12.904;2022-11-15T06:40:44;8.20;;;3.00;;
72037;SDS011;59900;50.788;12.904;2022-11-15T06:43:09;7.23;;;2.73;;
72037;SDS011;59900;50.788;12.904;2022-11-15T06:45:34;7.37;;;3.40;;
72037;SDS011;59900;50.788;12.904;2022-11-15T06:48:00;7.47;;;2.70;;
72037;SDS011;59900;50.788;12.904;2022-11-15T06:50:25;6.60;;;3.23;;
72037;SDS011;59900;50.788;12.904;2022-11-15T06:52:50;7.67;;;3.27;;
72037;SDS011;59900;50.788;12.904;2022-11-15T06:55:15;8.90;;;3.30;;
72037;SDS011;59900;50.788;12.904;2022-11-15T06:57:50;7.70;;;2.87;;
72037;SDS011;59900;50.788;12.904;2022-11-15T07:00:17;6.65;;;3.10;;
72037;SDS011;59900;50.788;12.904;2022-11-15T07:02:44;9.77;;;2.83;;
72037;SDS011;59900;50.788;12.904;2022-11-15T07:05:10;6.25;;;2.75;;
72037;SDS011;59900;50.788;12.904;2022-11-15T07:07:36;6.90;;;2.92;;
72037;SDS011;59900;50.788;12.904;2022-11-15T07:10:01;6.33;;;2.60;;
72037;SDS011;59900;50.788;12.904;2022-11-15T07:12:26;9.47;;;3.30;;
72037;SDS011;59900;50.788;12.904;2022-11-15T07:14:51;7.40;;;2.83;;
72037;SDS011;59900;50.788;12.904;2022-11-15T07:17:17;6.13;;;3.00;;
72037;SDS011;59900;50.788;12.904;2022-11-15T07:19:42;7.33;;;2.97;;
72037;SDS011;59900;50.788;12.904;2022-11-15T07:22:07;8.00;;;3.00;;
72037;SDS011;59900;50.788;12.904;2022-11-15T07:24:33;6.77;;;2.90;;
72037;SDS011;59900;50.788;12.904;2022-11-15T07:26:58;6.57;;;3.00;;
72037;SDS011;59900;50.788;12.904;2022-11-15T07:29:23;7.93;;;3.73;;
72037;SDS011;59900;50.788;12.904;2022-11-15T07:31:49;9.70;;;3.50;;
72037;SDS011;59900;50.788;12.904;2022-11-15T07:34:15;7.80;;;3.65;;
72037;SDS011;59900;50.788;12.904;2022-11-15T07:36:40;7.23;;;3.27;;
72037;SDS011;59900;50.788;12.904;2022-11-15T07:39:05;6.57;;;3.27;;
72037;SDS011;59900;50.788;12.904;2022-11-15T07:41:31;7.13;;;3.20;;
72037;SDS011;59900;50.788;12.904;2022-11-15T07:43:56;9.50;;;3.60;;
72037;SDS011;59900;50.788;12.904;2022-11-15T07:46:22;7.63;;;3.17;;
72037;SDS011;59900;50.788;12.904;2022-11-15T07:48:47;7.57;;;3.87;;
72037;SDS011;59900;50.788;12.904;2022-11-15T07:51:13;9.93;;;3.43;;
72037;SDS011;59900;50.788;12.904;2022-11-15T07:53:39;9.37;;;3.77;;
72037;SDS011;59900;50.788;12.904;2022-11-15T07:56:06;9.77;;;3.92;;
72037;SDS011;59900;50.788;12.904;2022-11-15T07:58:32;11.00;;;4.50;;
72037;SDS011;59900;50.788;12.904;2022-11-15T08:00:57;9.03;;;5.00;;
72037;SDS011;59900;50.788;12.904;2022-11-15T08:03:22;11.97;;;4.80;;
72037;SDS011;59900;50.788;12.904;2022-11-15T08:05:50;9.03;;;4.53;;
72037;SDS011;59900;50.788;12.904;2022-11-15T08:08:17;9.48;;;4.22;;
72037;SDS011;59900;50.788;12.904;2022-11-15T08:10:42;9.97;;;4.30;;
72037;SDS011;59900;50.788;12.904;2022-11-15T08:13:08;9.93;;;4.60;;
72037;SDS011;59900;50.788;12.904;2022-11-15T08:15:35;9.75;;;4.90;;
72037;SDS011;59900;50.788;12.904;2022-11-15T08:18:03;10.93;;;5.00;;
72037;SDS011;59900;50.788;12.904;2022-11-15T08:20:32;9.30;;;4.78;;
72037;SDS011;59900;50.788;12.904;2022-11-15T08:22:59;13.63;;;4.87;;
72037;SDS011;59900;50.788;12.904;2022-11-15T08:25:26;9.30;;;4.38;;
72037;SDS011;59900;50.788;12.904;2022-11-15T08:27:53;11.25;;;4.80;;
72037;SDS011;59900;50.788;12.904;2022-11-15T08:30:19;9.98;;;4.97;;
72037;SDS011;59900;50.788;12.904;2022-11-15T08:32:45;11.90;;;5.10;;
72037;SDS011;59900;50.788;12.904;2022-11-15T08:35:10;11.13;;;4.60;;
72037;SDS011;59900;50.788;12.904;2022-11-15T08:37:36;11.00;;;4.73;;
72037;SDS011;59900;50.788;12.904;2022-11-15T08:40:01;12.33;;;4.73;;
72037;SDS011;59900;50.788;12.904;2022-11-15T08:42:26;9.13;;;4.73;;
72037;SDS011;59900;50.788;12.904;2022-11-15T08:44:51;11.55;;;4.72;;
72037;SDS011;59900;50.788;12.904;2022-11-15T08:47:17;10.77;;;5.53;;
72037;SDS011;59900;50.788;12.904;2022-11-15T08:49:42;10.73;;;4.50;;
72037;SDS011;59900;50.788;12.904;2022-11-15T08:52:07;10.00;;;4.73;;
72037;SDS011;59900;50.788;12.904;2022-11-15T08:54:32;9.30;;;5.03;;
72037;SDS011;59900;50.788;12.904;2022-11-15T08:56:58;10.20;;;4.20;;
72037;SDS011;59900;50.788;12.904;2022-11-15T08:59:23;11.33;;;4.43;;
72037;SDS011;59900;50.788;12.904;2022-11-15T09:01:48;9.03;;;4.53;;
72037;SDS011;59900;50.788;12.904;2022-11-15T09:04:14;9.47;;;4.50;;
72037;SDS011;59900;50.788;12.904;2022-11-15T09:06:39;8.35;;;4.35;;
72037;SDS011;59900;50.788;12.904;2022-11-15T09:09:04;10.43;;;4.70;;
72037;SDS011;59900;50.788;12.904;2022-11-15T09:11:29;8.77;;;4.20;;
72037;SDS011;59900;50.788;12.904;2022-11-15T09:13:55;7.90;;;3.63;;
72037;SDS011;59900;50.788;12.904;2022-11-15T09:16:20;8.23;;;4.07;;
72037;SDS011;59900;50.788;12.904;2022-11-15T09:18:45;8.73;;;3.93;;
72037;SDS011;59900;50.788;12.904;2022-11-15T09:21:11;7.43;;;3.40;;
72037;SDS011;59900;50.788;12.904;2022-11-15T09:23:36;8.97;;;3.60;;
72037;SDS011;59900;50.788;12.904;2022-11-15T09:26:02;6.90;;;3.20;;
72037;SDS011;59900;50.788;12.904;2022-11-15T09:28:29;7.65;;;3.30;;
72037;SDS011;59900;50.788;12.904;2022-11-15T09:30:56;9.00;;;3.80;;
72037;SDS011;59900;50.788;12.904;2022-11-15T09:33:23;9.10;;;4.30;;
72037;SDS011;59900;50.788;12.904;2022-11-15T09:35:48;9.00;;;3.50;;
72037;SDS011;59900;50.788;12.904;2022-11-15T09:38:14;8.80;;;3.30;;
72037;SDS011;59900;50.788;12.904;2022-11-15T09:40:39;6.53;;;2.90;;
72037;SDS011;59900;50.788;12.904;2022-11-15T09:46:13;5.93;;;2.80;;
72037;SDS011;59900;50.788;12.904;2022-11-15T09:48:48;6.60;;;3.03;;
72037;SDS011;59900;50.788;12.904;2022-11-15T09:51:22;6.93;;;3.00;;
72037;SDS011;59900;50.788;12.904;2022-11-15T09:56:40;6.43;;;2.87;;
72037;SDS011;59900;50.788;12.904;2022-11-15T09:59:12;6.72;;;2.50;;
72037;SDS011;59900;50.788;12.904;2022-11-15T10:02:08;5.18;;;2.63;;
72037;SDS011;59900;50.788;12.904;2022-11-15T10:04:40;6.00;;;2.45;;
72037;SDS011;59900;50.788;12.904;2022-11-15T10:07:13;6.10;;;3.00;;
72037;SDS011;59900;50.788;12.904;2022-11-15T10:09:46;7.00;;;2.60;;
72037;SDS011;59900;50.788;12.904;2022-11-15T10:12:16;4.82;;;2.35;;
72037;SDS011;59900;50.788;12.904;2022-11-15T10:14:42;6.13;;;2.60;;
72037;SDS011;59900;50.788;12.904;2022-11-15T10:17:27;6.95;;;3.00;;
72037;SDS011;59900;50.788;12.904;2022-11-15T10:20:12;10.43;;;3.00;;
72037;SDS011;59900;50.788;12.904;2022-11-15T10:22:47;6.85;;;2.63;;
72037;SDS011;59900;50.788;12.904;2022-11-15T10:27:43;4.70;;;2.28;;
72037;SDS011;59900;50.788;12.904;2022-11-15T10:30:12;5.32;;;2.40;;
72037;SDS011;59900;50.788;12.904;2022-11-15T10:32:41;5.63;;;2.70;;
72037;SDS011;59900;50.788;12.904;2022-11-15T10:35:22;5.65;;;2.20;;
72037;SDS011;59900;50.788;12.904;2022-11-15T10:38:11;6.32;;;2.13;;
72037;SDS011;59900;50.788;12.904;2022-11-15T10:40:38;4.90;;;2.50;;
72037;SDS011;59900;50.788;12.904;2022-11-15T10:45:36;5.27;;;2.30;;
72037;SDS011;59900;50.788;12.904;2022-11-15T10:50:43;5.28;;;2.10;;
72037;SDS011;59900;50.788;12.904;2022-11-15T10:53:31;6.75;;;2.90;;
72037;SDS011;59900;50.788;12.904;2022-11-15T10:56:03;5.88;;;2.58;;
72037;SDS011;59900;50.788;12.904;2022-11-15T10:58:43;4.83;;;2.60;;
72037;SDS011;59900;50.788;12.904;2022-11-15T11:01:16;7.88;;;2.60;;
72037;SDS011;59900;50.788;12.904;2022-11-15T11:03:44;5.20;;;2.60;;
72037;SDS011;59900;50.788;12.904;2022-11-15T11:06:22;5.68;;;2.67;;
72037;SDS011;59900;50.788;12.904;2022-11-15T11:09:01;5.03;;;2.40;;
72037;SDS011;59900;50.788;12.904;2022-11-15T11:14:11;6.07;;;2.90;;
72037;SDS011;59900;50.788;12.904;2022-11-15T11:16:42;6.25;;;2.30;;
72037;SDS011;59900;50.788;12.904;2022-11-15T11:19:17;6.13;;;2.95;;
72037;SDS011;59900;50.788;12.904;2022-11-15T11:27:49;8.83;;;2.57;;
72037;SDS011;59900;50.788;12.904;2022-11-15T11:30:47;4.95;;;2.20;;
72037;SDS011;59900;50.788;12.904;2022-11-15T11:35:59;14.98;;;2.42;;
72037;SDS011;59900;50.788;12.904;2022-11-15T11:41:10;5.10;;;2.27;;
72037;SDS011;59900;50.788;12.904;2022-11-15T11:46:48;5.55;;;2.30;;
72037;SDS011;59900;50.788;12.904;2022-11-15T11:49:21;5.70;;;2.55;;
72037;SDS011;59900;50.788;12.904;2022-11-15T11:52:03;6.68;;;2.50;;
72037;SDS011;59900;50.788;12.904;2022-11-15T11:57:27;5.38;;;2.42;;
72037;SDS011;59900;50.788;12.904;2022-11-15T12:00:01;7.00;;;2.67;;
72037;SDS011;59900;50.788;12.904;2022-11-15T12:02:31;6.82;;;2.47;;
72037;SDS011;59900;50.788;12.904;2022-11-15T12:05:04;6.75;;;2.40;;
72037;SDS011;59900;50.788;12.904;2022-11-15T12:08:04;4.70;;;2.20;;
72037;SDS011;59900;50.788;12.904;2022-11-15T12:10:45;5.82;;;2.42;;
72037;SDS011;59900;50.788;12.904;2022-11-15T12:13:31;7.28;;;2.50;;
72037;SDS011;59900;50.788;12.904;2022-11-15T12:16:03;5.63;;;2.30;;
72037;SDS011;59900;50.788;12.904;2022-11-15T12:18:36;5.68;;;2.58;;
72037;SDS011;59900;50.788;12.904;2022-11-15T12:21:07;6.43;;;2.50;;
72037;SDS011;59900;50.788;12.904;2022-11-15T12:23:44;8.93;;;2.35;;
72037;SDS011;59900;50.788;12.904;2022-11-15T12:26:16;5.05;;;2.60;;
72037;SDS011;59900;50.788;12.904;2022-11-15T12:28:57;7.82;;;2.55;;
72037;SDS011;59900;50.788;12.904;2022-11-15T12:31:36;6.00;;;2.55;;
72037;SDS011;59900;50.788;12.904;2022-11-15T12:34:49;6.03;;;2.13;;
72037;SDS011;59900;50.788;12.904;2022-11-15T12:36:52;6.57;;;2.28;;
72037;SDS011;59900;50.788;12.904;2022-11-15T12:39:18;6.88;;;2.75;;
72037;SDS011;59900;50.788;12.904;2022-11-15T12:42:23;7.87;;;2.63;;
72037;SDS011;59900;50.788;12.904;2022-11-15T12:47:42;9.50;;;2.50;;
72037;SDS011;59900;50.788;12.904;2022-11-15T12:49:50;8.43;;;2.50;;
72037;SDS011;59900;50.788;12.904;2022-11-15T12:52:16;5.90;;;2.30;;
72037;SDS011;59900;50.788;12.904;2022-11-15T12:59:48;5.00;;;2.43;;
72037;SDS011;59900;50.788;12.904;2022-11-15T13:02:26;6.65;;;2.70;;
72037;SDS011;59900;50.788;12.904;2022-11-15T13:05:19;5.30;;;2.10;;
72037;SDS011;59900;50.788;12.904;2022-11-15T13:22:41;5.43;;;2.30;;
72037;SDS011;59900;50.788;12.904;2022-11-15T13:25:18;5.13;;;2.20;;
72037;SDS011;59900;50.788;12.904;2022-11-15T13:28:09;6.15;;;2.10;;
72037;SDS011;59900;50.788;12.904;2022-11-15T13:30:51;5.95;;;1.90;;
72037;SDS011;59900;50.788;12.904;2022-11-15T13:33:20;6.95;;;3.13;;
72037;SDS011;59900;50.788;12.904;2022-11-15T13:35:50;5.95;;;2.63;;
72037;SDS011;59900;50.788;12.904;2022-11-15T13:40:51;8.52;;;2.90;;
72037;SDS011;59900;50.788;12.904;2022-11-15T13:48:38;5.43;;;2.00;;
72037;SDS011;59900;50.788;12.904;2022-11-15T13:51:29;6.47;;;2.03;;
72037;SDS011;59900;50.788;12.904;2022-11-15T13:56:47;5.97;;;2.20;;
72037;SDS011;59900;50.788;12.904;2022-11-15T13:59:30;4.97;;;2.20;;
72037;SDS011;59900;50.788;12.904;2022-11-15T14:02:12;6.13;;;2.40;;
72037;SDS011;59900;50.788;12.904;2022-11-15T14:04:46;5.07;;;2.38;;
72037;SDS011;59900;50.788;12.904;2022-11-15T14:07:19;6.35;;;2.28;;
72037;SDS011;59900;50.788;12.904;2022-11-15T14:09:46;9.10;;;2.40;;
72037;SDS011;59900;50.788;12.904;2022-11-15T14:12:29;5.32;;;2.47;;
72037;SDS011;59900;50.788;12.904;2022-11-15T14:14:59;5.28;;;2.17;;
72037;SDS011;59900;50.788;12.904;2022-11-15T14:19:54;6.05;;;2.67;;
72037;SDS011;59900;50.788;12.904;2022-11-15T14:22:23;7.23;;;2.53;;
72037;SDS011;59900;50.788;12.904;2022-11-15T14:25:12;5.32;;;2.42;;
72037;SDS011;59900;50.788;12.904;2022-11-15T14:27:44;6.10;;;2.58;;
72037;SDS011;59900;50.788;12.904;2022-11-15T14:30:29;8.05;;;3.05;;
72037;SDS011;59900;50.788;12.904;2022-11-15T14:32:55;9.23;;;4.47;;
72037;SDS011;59900;50.788;12.904;2022-11-15T14:35:20;5.60;;;2.60;;
72037;SDS011;59900;50.788;12.904;2022-11-15T14:37:47;6.45;;;3.30;;
72037;SDS011;59900;50.788;12.904;2022-11-15T14:40:14;5.60;;;2.78;;
72037;SDS011;59900;50.788;12.904;2022-11-15T14:42:42;6.07;;;2.20;;
72037;SDS011;59900;50.788;12.904;2022-11-15T14:45:13;6.85;;;2.25;;
72037;SDS011;59900;50.788;12.904;2022-11-15T14:47:45;7.80;;;2.55;;
72037;SDS011;59900;50.788;12.904;2022-11-15T14:50:12;5.60;;;2.45;;
72037;SDS011;59900;50.788;12.904;2022-11-15T14:52:39;7.43;;;2.70;;
72037;SDS011;59900;50.788;12.904;2022-11-15T14:55:11;5.47;;;2.47;;
72037;SDS011;59900;50.788;12.904;2022-11-15T14:57:41;5.07;;;2.38;;
72037;SDS011;59900;50.788;12.904;2022-11-15T15:00:07;5.87;;;2.87;;
72037;SDS011;59900;50.788;12.904;2022-11-15T15:02:33;6.03;;;2.70;;
72037;SDS011;59900;50.788;12.904;2022-11-15T15:04:59;6.97;;;2.43;;
72037;SDS011;59900;50.788;12.904;2022-11-15T15:07:27;6.75;;;2.58;;
72037;SDS011;59900;50.788;12.904;2022-11-15T15:09:52;7.07;;;3.07;;
72037;SDS011;59900;50.788;12.904;2022-11-15T15:12:19;7.43;;;2.90;;
72037;SDS011;59900;50.788;12.904;2022-11-15T15:14:46;7.63;;;3.08;;
72037;SDS011;59900;50.788;12.904;2022-11-15T15:17:13;6.35;;;2.60;;
72037;SDS011;59900;50.788;12.904;2022-11-15T15:19:39;5.45;;;2.58;;
72037;SDS011;59900;50.788;12.904;2022-11-15T15:22:04;6.40;;;2.13;;
72037;SDS011;59900;50.788;12.904;2022-11-15T15:24:31;5.43;;;2.28;;
72037;SDS011;59900;50.788;12.904;2022-11-15T15:26:56;4.97;;;1.90;;
72037;SDS011;59900;50.788;12.904;2022-11-15T15:29:21;5.57;;;2.50;;
72037;SDS011;59900;50.788;12.904;2022-11-15T15:31:47;4.47;;;2.30;;
72037;SDS011;59900;50.788;12.904;2022-11-15T15:34:12;4.67;;;1.87;;
72037;SDS011;59900;50.788;12.904;2022-11-15T15:36:37;6.20;;;2.63;;
72037;SDS011;59900;50.788;12.904;2022-11-15T15:39:02;4.53;;;2.30;;
72037;SDS011;59900;50.788;12.904;2022-11-15T15:41:28;5.60;;;2.50;;
72037;SDS011;59900;50.788;12.904;2022-11-15T15:43:53;5.23;;;2.53;;
72037;SDS011;59900;50.788;12.904;2022-11-15T15:46:19;4.80;;;2.10;;
72037;SDS011;59900;50.788;12.904;2022-11-15T15:48:45;7.25;;;2.30;;
72037;SDS011;59900;50.788;12.904;2022-11-15T15:51:10;7.03;;;2.75;;
72037;SDS011;59900;50.788;12.904;2022-11-15T15:53:36;5.33;;;2.77;;
72037;SDS011;59900;50.788;12.904;2022-11-15T15:56:02;6.00;;;2.60;;
72037;SDS011;59900;50.788;12.904;2022-11-15T15:58:27;6.47;;;2.30;;
72037;SDS011;59900;50.788;12.904;2022-11-15T16:00:52;5.80;;;2.60;;
72037;SDS011;59900;50.788;12.904;2022-11-15T16:03:17;6.10;;;3.37;;
72037;SDS011;59900;50.788;12.904;2022-11-15T16:05:43;6.37;;;2.70;;
72037;SDS011;59900;50.788;12.904;2022-11-15T16:08:22;7.10;;;3.27;;